createdAt,value
2018-06-30T10:09:31.019Z,7.5
2018-06-30T10:10:33.767Z,7.6
2018-06-30T10:11:36.519Z,7.6
2018-06-30T10:12:39.725Z,7.7
2018-06-30T10:13:42.542Z,7.7
2018-06-30T10:14:45.276Z,7.8
2018-06-30T10:15:48.028Z,7.8
2018-06-30T10:16:50.521Z,7.8
2018-06-30T10:17:53.023Z,7.8
2018-06-30T10:18:55.771Z,7.8
2018-06-30T10:19:58.521Z,7.8
2018-06-30T10:21:02.313Z,7.8
2018-06-30T10:22:04.748Z,7.8
2018-06-30T10:23:07.493Z,7.8
2018-06-30T10:24:10.257Z,7.8
2018-06-30T10:25:13.009Z,7.8
2018-06-30T10:26:15.750Z,7.8
2018-06-30T10:27:18.486Z,7.8
2018-06-30T10:28:21.218Z,7.8
2018-06-30T10:29:23.951Z,7.8
2018-06-30T10:30:26.703Z,7.8
2018-06-30T10:31:29.178Z,7.8
2018-06-30T10:32:31.927Z,7.8
2018-06-30T10:33:34.668Z,7.8
2018-06-30T10:34:37.427Z,7.8
2018-06-30T10:35:40.158Z,7.8
2018-06-30T10:36:42.906Z,7.8
2018-06-30T10:37:45.642Z,7.8
2018-06-30T10:38:48.393Z,7.8
2018-06-30T10:39:50.858Z,7.8
2018-06-30T10:40:53.332Z,7.8
2018-06-30T10:41:56.086Z,7.8
2018-06-30T10:42:58.569Z,7.8
2018-06-30T10:44:01.308Z,7.8
2018-06-30T10:45:04.053Z,7.8
2018-06-30T10:46:06.507Z,7.8
2018-06-30T10:47:08.978Z,7.8
2018-06-30T10:48:11.728Z,7.8
2018-06-30T10:49:14.471Z,7.8
2018-06-30T10:50:17.222Z,7.8
2018-06-30T10:51:19.709Z,7.8
2018-06-30T10:52:22.457Z,7.8
2018-06-30T10:53:25.194Z,7.8
2018-06-30T10:54:27.961Z,7.8
2018-06-30T10:55:31.250Z,7.8
2018-06-30T10:56:34.107Z,7.8
2018-06-30T10:57:36.330Z,7.8
2018-06-30T10:58:39.079Z,7.7
2018-06-30T10:59:41.822Z,7.7
2018-06-30T11:00:44.579Z,7.6
2018-06-30T11:01:47.349Z,7.5
2018-06-30T11:02:50.113Z,7.5
2018-06-30T11:03:52.778Z,7.4
2018-06-30T11:04:55.511Z,7.3
2018-06-30T11:05:58.929Z,7.2
2018-06-30T11:07:01.673Z,7.2
2018-06-30T11:08:04.158Z,7.2
2018-06-30T11:09:06.926Z,7.2
2018-06-30T11:10:09.680Z,7.2
2018-06-30T11:11:12.420Z,7.2
2018-06-30T11:12:15.168Z,7.2
2018-06-30T11:13:17.917Z,7.2
2018-06-30T11:14:20.665Z,7.2
2018-06-30T11:15:23.414Z,7.2
2018-06-30T11:16:26.170Z,7.2
2018-06-30T11:17:29.104Z,7.2
2018-06-30T11:18:31.849Z,7.2
2018-06-30T11:19:34.581Z,7.2
2018-06-30T11:20:37.340Z,7.2
2018-06-30T11:21:39.815Z,7.2
2018-06-30T11:22:42.589Z,7.2
2018-06-30T11:23:45.340Z,7.2
2018-06-30T11:24:47.833Z,7.2
2018-06-30T11:25:50.628Z,7.2
2018-06-30T11:26:53.383Z,7.2
2018-06-30T11:27:56.124Z,7.2
2018-06-30T11:28:58.599Z,7.2
2018-06-30T11:30:01.347Z,7.2
2018-06-30T11:31:04.117Z,7.2
2018-06-30T11:32:06.885Z,7.2
2018-06-30T11:33:09.641Z,7.3
2018-06-30T11:34:12.379Z,7.3
2018-06-30T11:35:15.128Z,7.3
2018-06-30T11:36:17.887Z,7.3
2018-06-30T11:37:20.359Z,7.3
2018-06-30T11:38:23.120Z,7.3
2018-06-30T11:39:25.855Z,7.4
2018-06-30T11:40:28.761Z,7.4
2018-06-30T11:41:31.300Z,7.4
2018-06-30T11:42:33.777Z,7.4
2018-06-30T11:43:36.264Z,7.4
2018-06-30T11:44:39.016Z,7.5
2018-06-30T11:45:41.789Z,7.5
2018-06-30T11:46:44.544Z,7.5
2018-06-30T11:47:47.278Z,7.5
2018-06-30T11:48:49.787Z,7.5
2018-06-30T11:49:52.317Z,7.5
2018-06-30T11:50:55.058Z,7.5
2018-06-30T11:51:57.843Z,7.5
2018-06-30T11:53:00.332Z,7.5
2018-06-30T11:54:03.088Z,7.6
2018-06-30T11:55:05.578Z,7.6
2018-06-30T11:56:08.320Z,7.6
2018-06-30T11:57:11.077Z,7.6
2018-06-30T11:58:13.823Z,7.7
2018-06-30T11:59:16.633Z,7.7
2018-06-30T12:00:19.364Z,7.8
2018-06-30T12:01:22.132Z,7.8
2018-06-30T12:02:24.891Z,7.8
2018-06-30T12:03:27.990Z,7.8
2018-06-30T12:04:30.728Z,7.8
2018-06-30T12:05:33.479Z,7.8
2018-06-30T12:06:36.224Z,7.8
2018-06-30T12:07:38.975Z,7.8
2018-06-30T12:08:41.725Z,7.8
2018-06-30T12:09:43.915Z,7.8
2018-06-30T12:10:46.388Z,7.8
2018-06-30T12:11:49.128Z,7.8
2018-06-30T12:12:51.588Z,7.8
2018-06-30T12:13:54.348Z,7.8
2018-06-30T12:14:57.118Z,7.8
2018-06-30T12:15:59.856Z,7.8
2018-06-30T12:17:02.346Z,7.8
2018-06-30T12:18:05.076Z,7.8
2018-06-30T12:19:07.849Z,7.8
2018-06-30T12:20:10.597Z,7.8
2018-06-30T12:21:13.097Z,7.8
2018-06-30T12:22:15.587Z,7.8
2018-06-30T12:23:18.333Z,7.8
2018-06-30T12:24:21.082Z,7.8
2018-06-30T12:25:23.826Z,7.8
2018-06-30T12:26:26.582Z,7.8
2018-06-30T12:27:29.323Z,7.8
2018-06-30T12:28:32.058Z,7.8
2018-06-30T12:29:34.807Z,7.8
2018-06-30T12:30:37.554Z,7.8
2018-06-30T12:31:40.295Z,7.8
2018-06-30T12:32:43.075Z,7.8
2018-06-30T12:33:45.818Z,7.9
2018-06-30T12:34:48.559Z,7.9
2018-06-30T12:35:51.294Z,7.9
2018-06-30T12:36:53.794Z,7.9
2018-06-30T12:37:56.547Z,7.8
2018-06-30T12:38:59.291Z,7.8
2018-06-30T12:40:02.039Z,7.8
2018-06-30T12:41:04.798Z,7.8
2018-06-30T12:42:07.555Z,7.8
2018-06-30T12:43:10.297Z,7.7
2018-06-30T12:44:12.785Z,7.7
2018-06-30T12:45:15.523Z,7.6
2018-06-30T12:46:18.271Z,7.5
2018-06-30T12:47:20.998Z,7.4
2018-06-30T12:48:23.757Z,7.4
2018-06-30T12:49:26.262Z,7.3
2018-06-30T12:50:29.016Z,7.2
2018-06-30T12:51:31.759Z,7.2
2018-06-30T12:52:34.500Z,7.2
2018-06-30T12:53:36.998Z,7.2
2018-06-30T12:54:40.914Z,7.2
2018-06-30T12:55:43.656Z,7.2
2018-06-30T12:56:46.164Z,7.2
2018-06-30T12:57:48.649Z,7.2
2018-06-30T12:58:51.397Z,7.2
2018-06-30T12:59:54.148Z,7.2
2018-06-30T13:00:56.631Z,7.2
2018-06-30T13:01:59.394Z,7.2
2018-06-30T13:03:01.889Z,7.2
2018-06-30T13:04:04.370Z,7.2
2018-06-30T13:05:07.248Z,7.2
2018-06-30T13:06:10.054Z,7.2
2018-06-30T13:07:12.525Z,7.2
2018-06-30T13:08:15.284Z,7.2
2018-06-30T13:09:18.694Z,7.2
2018-06-30T13:10:21.596Z,7.2
2018-06-30T13:11:24.352Z,7.2
2018-06-30T13:12:27.090Z,7.2
2018-06-30T13:13:29.839Z,7.2
2018-06-30T13:14:32.583Z,7.2
2018-06-30T13:15:35.095Z,7.2
2018-06-30T13:16:37.843Z,7.2
2018-06-30T13:17:40.775Z,7.2
2018-06-30T13:18:43.527Z,7.2
2018-06-30T13:19:46.308Z,7.2
2018-06-30T13:20:48.811Z,7.2
2018-06-30T13:21:51.578Z,7.2
2018-06-30T13:22:54.305Z,7.2
2018-06-30T13:23:57.066Z,7.2
2018-06-30T13:24:59.562Z,7.2
2018-06-30T13:26:02.318Z,7.2
2018-06-30T13:27:05.057Z,7.3
2018-06-30T13:28:07.809Z,7.3
2018-06-30T13:29:10.549Z,7.3
2018-06-30T13:30:13.307Z,7.3
2018-06-30T13:31:16.063Z,7.3
2018-06-30T13:32:18.554Z,7.3
2018-06-30T13:33:21.321Z,7.3
2018-06-30T13:34:23.874Z,7.3
2018-06-30T13:35:26.612Z,7.3
2018-06-30T13:36:29.398Z,7.4
2018-06-30T13:37:32.140Z,7.4
2018-06-30T13:38:34.926Z,7.4
2018-06-30T13:39:37.672Z,7.4
2018-06-30T13:40:40.550Z,7.5
2018-06-30T13:41:43.381Z,7.6
2018-06-30T13:42:46.124Z,7.6
2018-06-30T13:43:48.881Z,7.7
2018-06-30T13:44:51.614Z,7.7
2018-06-30T13:45:54.368Z,7.7
2018-06-30T13:46:56.586Z,7.8
2018-06-30T13:47:59.340Z,7.8
2018-06-30T13:49:02.092Z,7.8
2018-06-30T13:50:04.845Z,7.8
2018-06-30T13:51:07.340Z,7.8
2018-06-30T13:52:10.097Z,7.8
2018-06-30T13:53:12.837Z,7.8
2018-06-30T13:54:15.310Z,7.8
2018-06-30T13:55:18.043Z,7.8
2018-06-30T13:56:20.803Z,7.8
2018-06-30T13:57:23.558Z,7.8
2018-06-30T13:58:26.316Z,7.8
2018-06-30T13:59:28.787Z,7.9
2018-06-30T14:00:31.527Z,7.9
2018-06-30T14:01:34.284Z,7.9
2018-06-30T14:02:36.775Z,7.9
2018-06-30T14:03:39.271Z,7.9
2018-06-30T14:04:42.029Z,7.9
2018-06-30T14:05:44.780Z,7.9
2018-06-30T14:06:47.294Z,7.9
2018-06-30T14:07:50.045Z,7.9
2018-06-30T14:08:52.778Z,7.9
2018-06-30T14:09:55.539Z,7.9
2018-06-30T14:10:58.306Z,7.9
2018-06-30T14:12:01.046Z,7.8
2018-06-30T14:13:03.529Z,7.8
2018-06-30T14:14:06.006Z,7.8
2018-06-30T14:15:08.757Z,7.8
2018-06-30T14:16:11.502Z,7.8
2018-06-30T14:17:14.244Z,7.8
2018-06-30T14:18:17.265Z,7.8
2018-06-30T14:19:19.699Z,7.8
2018-06-30T14:20:22.164Z,7.8
2018-06-30T14:21:24.637Z,7.9
2018-06-30T14:22:27.388Z,7.9
2018-06-30T14:23:30.537Z,7.9
2018-06-30T14:24:33.357Z,7.8
2018-06-30T14:25:36.100Z,7.8
2018-06-30T14:26:38.845Z,7.8
2018-06-30T14:27:41.086Z,7.8
2018-06-30T14:28:44.036Z,7.7
2018-06-30T14:29:46.798Z,7.7
2018-06-30T14:30:49.542Z,7.6
2018-06-30T14:31:52.297Z,7.5
2018-06-30T14:32:55.048Z,7.5
2018-06-30T14:33:57.815Z,7.4
2018-06-30T14:35:00.289Z,7.3
2018-06-30T14:36:03.052Z,7.2
2018-06-30T14:37:05.785Z,7.2
2018-06-30T14:38:08.549Z,7.2
2018-06-30T14:39:11.301Z,7.2
2018-06-30T14:40:14.064Z,7.2
2018-06-30T14:41:16.602Z,7.2
2018-06-30T14:42:19.079Z,7.2
2018-06-30T14:43:21.626Z,7.2
2018-06-30T14:44:24.348Z,7.2
2018-06-30T14:45:27.082Z,7.2
2018-06-30T14:46:29.835Z,7.2
2018-06-30T14:47:32.599Z,7.2
2018-06-30T14:48:35.356Z,7.2
2018-06-30T14:49:38.576Z,7.2
2018-06-30T14:50:41.309Z,7.2
2018-06-30T14:51:44.060Z,7.2
2018-06-30T14:52:46.804Z,7.2
2018-06-30T14:53:49.308Z,7.2
2018-06-30T14:54:51.782Z,7.2
2018-06-30T14:55:54.535Z,7.2
2018-06-30T14:56:57.022Z,7.2
2018-06-30T14:57:59.753Z,7.2
2018-06-30T14:59:02.498Z,7.2
2018-06-30T15:00:05.257Z,7.2
2018-06-30T15:01:07.995Z,7.2
2018-06-30T15:02:10.751Z,7.2
2018-06-30T15:03:13.496Z,7.3
2018-06-30T15:04:15.960Z,7.3
2018-06-30T15:05:18.714Z,7.3
2018-06-30T15:06:21.508Z,7.3
2018-06-30T15:07:24.449Z,7.4
2018-06-30T15:08:27.256Z,7.4
2018-06-30T15:09:30.003Z,7.4
2018-06-30T15:10:32.757Z,7.4
2018-06-30T15:11:35.499Z,7.5
2018-06-30T15:12:38.358Z,7.5
2018-06-30T15:13:40.823Z,7.5
2018-06-30T15:14:43.566Z,7.6
2018-06-30T15:15:46.313Z,7.6
2018-06-30T15:16:49.081Z,7.6
2018-06-30T15:17:51.841Z,7.6
2018-06-30T15:18:55.182Z,7.6
2018-06-30T15:19:57.442Z,7.6
2018-06-30T15:20:59.968Z,7.7
2018-06-30T15:22:02.715Z,7.7
2018-06-30T15:23:05.513Z,7.7
2018-06-30T15:24:07.773Z,7.7
2018-06-30T15:25:10.504Z,7.8
2018-06-30T15:26:13.279Z,7.8
2018-06-30T15:27:16.016Z,7.8
2018-06-30T15:28:18.778Z,7.8
2018-06-30T15:29:21.529Z,7.8
2018-06-30T15:30:24.755Z,7.8
2018-06-30T15:31:27.494Z,7.8
2018-06-30T15:32:30.225Z,7.9
2018-06-30T15:33:32.708Z,7.9
2018-06-30T15:34:35.437Z,7.9
2018-06-30T15:35:38.173Z,7.9
2018-06-30T15:36:40.644Z,7.9
2018-06-30T15:37:43.092Z,7.8
2018-06-30T15:38:45.293Z,7.8
2018-06-30T15:39:48.046Z,7.8
2018-06-30T15:40:50.804Z,7.8
2018-06-30T15:41:53.290Z,7.8
2018-06-30T15:42:56.069Z,7.8
2018-06-30T15:43:58.805Z,7.8
2018-06-30T15:45:01.547Z,7.8
2018-06-30T15:46:04.272Z,7.8
2018-06-30T15:47:07.145Z,7.8
2018-06-30T15:48:09.406Z,7.8
2018-06-30T15:49:12.207Z,7.8
2018-06-30T15:50:14.960Z,7.8
2018-06-30T15:51:17.699Z,7.8
2018-06-30T15:52:20.181Z,7.8
2018-06-30T15:53:22.924Z,7.8
2018-06-30T15:54:25.722Z,7.8
2018-06-30T15:55:28.185Z,7.8
2018-06-30T15:56:30.682Z,7.8
2018-06-30T15:57:33.464Z,7.8
2018-06-30T15:58:35.932Z,7.8
2018-06-30T15:59:38.706Z,7.9
2018-06-30T16:00:41.193Z,7.9
2018-06-30T16:01:43.667Z,7.9
2018-06-30T16:02:46.412Z,7.8
2018-06-30T16:03:49.168Z,7.8
2018-06-30T16:04:51.437Z,7.8
2018-06-30T16:05:54.328Z,7.8
2018-06-30T16:06:57.078Z,7.8
2018-06-30T16:07:59.549Z,7.8
2018-06-30T16:09:02.292Z,7.8
2018-06-30T16:10:05.619Z,7.8
2018-06-30T16:11:08.446Z,7.8
2018-06-30T16:12:11.175Z,7.8
2018-06-30T16:13:13.650Z,7.8
2018-06-30T16:14:16.400Z,7.8
2018-06-30T16:15:19.151Z,7.8
2018-06-30T16:16:21.831Z,7.8
2018-06-30T16:17:24.313Z,7.8
2018-06-30T16:18:27.066Z,7.8
2018-06-30T16:19:29.553Z,7.8
2018-06-30T16:20:32.298Z,7.7
2018-06-30T16:21:34.789Z,7.7
2018-06-30T16:22:37.543Z,7.7
2018-06-30T16:23:40.344Z,7.7
2018-06-30T16:24:43.077Z,7.6
2018-06-30T16:25:45.870Z,7.6
2018-06-30T16:26:48.607Z,7.5
2018-06-30T16:27:51.337Z,7.4
2018-06-30T16:28:54.478Z,7.4
2018-06-30T16:29:57.328Z,7.3
2018-06-30T16:30:59.807Z,7.2
2018-06-30T16:32:02.556Z,7.2
2018-06-30T16:33:05.329Z,7.2
2018-06-30T16:34:07.801Z,7.2
2018-06-30T16:35:10.287Z,7.2
2018-06-30T16:36:13.042Z,7.2
2018-06-30T16:37:15.784Z,7.2
2018-06-30T16:38:18.265Z,7.2
2018-06-30T16:39:21.018Z,7.2
2018-06-30T16:40:23.765Z,7.2
2018-06-30T16:41:26.507Z,7.2
2018-06-30T16:42:29.257Z,7.2
2018-06-30T16:43:32.011Z,7.2
2018-06-30T16:44:34.750Z,7.2
2018-06-30T16:45:37.495Z,7.2
2018-06-30T16:46:39.718Z,7.2
2018-06-30T16:47:42.446Z,7.2
2018-06-30T16:48:44.923Z,7.2
2018-06-30T16:49:47.663Z,7.2
2018-06-30T16:50:50.411Z,7.2
2018-06-30T16:51:53.154Z,7.2
2018-06-30T16:52:55.891Z,7.2
2018-06-30T16:53:58.633Z,7.2
2018-06-30T16:55:01.378Z,7.2
2018-06-30T16:56:04.122Z,7.2
2018-06-30T16:57:06.868Z,7.2
2018-06-30T16:58:09.608Z,7.2
2018-06-30T16:59:12.349Z,7.3
2018-06-30T17:00:15.096Z,7.3
2018-06-30T17:01:17.855Z,7.3
2018-06-30T17:02:20.594Z,7.3
2018-06-30T17:03:23.064Z,7.3
2018-06-30T17:04:25.522Z,7.4
2018-06-30T17:05:28.261Z,7.4
2018-06-30T17:06:31.030Z,7.4
2018-06-30T17:07:33.780Z,7.5
2018-06-30T17:08:36.250Z,7.5
2018-06-30T17:09:39.017Z,7.5
2018-06-30T17:10:41.766Z,7.5
2018-06-30T17:11:44.508Z,7.5
2018-06-30T17:12:47.253Z,7.5
2018-06-30T17:13:49.993Z,7.6
2018-06-30T17:14:52.676Z,7.6
2018-06-30T17:15:55.413Z,7.6
2018-06-30T17:16:57.901Z,7.6
2018-06-30T17:18:00.651Z,7.6
2018-06-30T17:19:03.390Z,7.6
2018-06-30T17:20:06.595Z,7.6
2018-06-30T17:21:09.346Z,7.7
2018-06-30T17:22:12.118Z,7.7
2018-06-30T17:23:14.860Z,7.7
2018-06-30T17:24:17.601Z,7.7
2018-06-30T17:25:20.361Z,7.7
2018-06-30T17:26:23.966Z,7.7
2018-06-30T17:27:26.498Z,7.7
2018-06-30T17:28:28.978Z,7.7
2018-06-30T17:29:31.735Z,7.7
2018-06-30T17:30:34.488Z,7.7
2018-06-30T17:31:37.236Z,7.7
2018-06-30T17:32:40.009Z,7.7
2018-06-30T17:33:42.752Z,7.7
2018-06-30T17:34:45.227Z,7.7
2018-06-30T17:35:47.974Z,7.7
2018-06-30T17:36:50.710Z,7.8
2018-06-30T17:37:53.466Z,7.8
2018-06-30T17:38:56.221Z,7.8
2018-06-30T17:39:58.962Z,7.8
2018-06-30T17:41:01.436Z,7.8
2018-06-30T17:42:03.913Z,7.8
2018-06-30T17:43:06.648Z,7.8
2018-06-30T17:44:09.407Z,7.8
2018-06-30T17:45:11.863Z,7.8
2018-06-30T17:46:14.597Z,7.8
2018-06-30T17:47:17.331Z,7.8
2018-06-30T17:48:20.063Z,7.8
2018-06-30T17:49:22.808Z,7.8
2018-06-30T17:50:25.548Z,7.8
2018-06-30T17:51:28.292Z,7.8
2018-06-30T17:52:31.038Z,7.8
2018-06-30T17:53:34.245Z,7.9
2018-06-30T17:54:37.005Z,7.9
2018-06-30T17:55:39.744Z,7.9
2018-06-30T17:56:42.499Z,7.9
2018-06-30T17:57:45.239Z,7.9
2018-06-30T17:58:47.977Z,7.9
2018-06-30T17:59:50.741Z,7.9
2018-06-30T18:00:53.498Z,7.9
2018-06-30T18:01:55.985Z,7.9
2018-06-30T18:02:58.745Z,7.9
2018-06-30T18:04:01.498Z,7.9
2018-06-30T18:05:04.235Z,7.9
2018-06-30T18:06:06.988Z,7.9
2018-06-30T18:07:09.737Z,7.9
2018-06-30T18:08:12.476Z,7.9
2018-06-30T18:09:15.215Z,7.9
2018-06-30T18:10:18.978Z,7.9
2018-06-30T18:11:21.846Z,7.9
2018-06-30T18:12:24.584Z,7.8
2018-06-30T18:13:26.833Z,7.9
2018-06-30T18:14:29.573Z,7.9
2018-06-30T18:15:32.321Z,7.9
2018-06-30T18:16:35.619Z,7.9
2018-06-30T18:17:38.182Z,7.9
2018-06-30T18:18:40.915Z,7.8
2018-06-30T18:19:43.382Z,7.8
2018-06-30T18:20:46.148Z,7.8
2018-06-30T18:21:48.609Z,7.8
2018-06-30T18:22:51.811Z,7.8
2018-06-30T18:23:54.535Z,7.8
2018-06-30T18:24:57.337Z,7.7
2018-06-30T18:26:00.128Z,7.7
2018-06-30T18:27:02.599Z,7.7
2018-06-30T18:28:05.347Z,7.6
2018-06-30T18:29:08.102Z,7.5
2018-06-30T18:30:10.583Z,7.5
2018-06-30T18:31:13.090Z,7.4
2018-06-30T18:32:15.576Z,7.2
2018-06-30T18:33:18.038Z,7.2
2018-06-30T18:34:20.790Z,7.2
2018-06-30T18:35:23.280Z,7.2
2018-06-30T18:36:26.048Z,7.2
2018-06-30T18:37:28.519Z,7.2
2018-06-30T18:38:31.256Z,7.2
2018-06-30T18:39:33.458Z,7.2
2018-06-30T18:40:36.207Z,7.2
2018-06-30T18:41:38.959Z,7.2
2018-06-30T18:42:41.702Z,7.2
2018-06-30T18:43:44.453Z,7.2
2018-06-30T18:44:46.930Z,7.2
2018-06-30T18:45:49.691Z,7.2
2018-06-30T18:46:52.431Z,7.2
2018-06-30T18:47:55.222Z,7.2
2018-06-30T18:48:57.968Z,7.2
2018-06-30T18:50:00.726Z,7.3
2018-06-30T18:51:03.467Z,7.3
2018-06-30T18:52:06.229Z,7.3
2018-06-30T18:53:08.409Z,7.4
2018-06-30T18:54:11.154Z,7.4
2018-06-30T18:55:13.919Z,7.4
2018-06-30T18:56:16.654Z,7.5
2018-06-30T18:57:19.411Z,7.5
2018-06-30T18:58:22.709Z,7.6
2018-06-30T18:59:25.461Z,7.6
2018-06-30T19:00:27.932Z,7.7
2018-06-30T19:01:30.711Z,7.7
2018-06-30T19:02:33.447Z,7.7
2018-06-30T19:03:36.201Z,7.8
2018-06-30T19:04:38.669Z,7.8
2018-06-30T19:05:41.437Z,7.8
2018-06-30T19:06:44.174Z,7.8
2018-06-30T19:07:46.658Z,7.8
2018-06-30T19:08:49.140Z,7.8
2018-06-30T19:09:51.962Z,7.8
2018-06-30T19:10:54.424Z,7.9
2018-06-30T19:11:57.174Z,7.9
2018-06-30T19:12:59.907Z,7.9
2018-06-30T19:14:02.397Z,7.9
2018-06-30T19:15:04.860Z,7.9
2018-06-30T19:16:07.588Z,7.9
2018-06-30T19:17:10.348Z,7.9
2018-06-30T19:18:13.099Z,7.9
2018-06-30T19:19:15.843Z,7.9
2018-06-30T19:20:18.579Z,7.9
2018-06-30T19:21:21.631Z,7.9
2018-06-30T19:22:24.364Z,7.9
2018-06-30T19:23:26.843Z,7.9
2018-06-30T19:24:29.322Z,7.8
2018-06-30T19:25:32.073Z,7.8
2018-06-30T19:26:34.817Z,7.8
2018-06-30T19:27:37.574Z,7.8
2018-06-30T19:28:40.315Z,7.8
2018-06-30T19:29:42.815Z,7.8
2018-06-30T19:30:45.569Z,7.8
2018-06-30T19:31:48.317Z,7.8
2018-06-30T19:32:51.062Z,7.8
2018-06-30T19:33:53.536Z,7.8
2018-06-30T19:34:56.291Z,7.8
2018-06-30T19:35:59.041Z,7.8
2018-06-30T19:37:01.784Z,7.8
2018-06-30T19:38:04.543Z,7.8
2018-06-30T19:39:06.766Z,7.8
2018-06-30T19:40:09.510Z,7.8
2018-06-30T19:41:12.275Z,7.8
2018-06-30T19:42:15.265Z,7.8
2018-06-30T19:43:17.991Z,7.8
2018-06-30T19:44:20.458Z,7.8
2018-06-30T19:45:23.210Z,7.8
2018-06-30T19:46:26.008Z,7.8
2018-06-30T19:47:28.759Z,7.8
2018-06-30T19:48:31.242Z,7.8
2018-06-30T19:49:33.727Z,7.8
2018-06-30T19:50:36.468Z,7.8
2018-06-30T19:51:39.197Z,7.8
2018-06-30T19:52:41.953Z,7.8
2018-06-30T19:53:44.725Z,7.8
2018-06-30T19:54:47.208Z,7.8
2018-06-30T19:55:49.939Z,7.8
2018-06-30T19:56:52.705Z,7.8
2018-06-30T19:57:55.440Z,7.8
2018-06-30T19:58:58.177Z,7.8
2018-06-30T20:00:00.914Z,7.8
2018-06-30T20:01:03.704Z,7.8
2018-06-30T20:02:06.194Z,7.8
2018-06-30T20:03:08.985Z,7.9
2018-06-30T20:04:11.737Z,7.9
2018-06-30T20:05:14.532Z,7.9
2018-06-30T20:06:17.044Z,7.9
2018-06-30T20:07:19.891Z,7.9
2018-06-30T20:08:22.679Z,7.9
2018-06-30T20:09:25.437Z,7.9
2018-06-30T20:10:28.310Z,7.9
2018-06-30T20:11:31.068Z,7.9
2018-06-30T20:12:33.824Z,7.9
2018-06-30T20:13:36.733Z,7.9
2018-06-30T20:14:39.669Z,7.8
2018-06-30T20:15:42.437Z,7.8
2018-06-30T20:16:45.188Z,7.8
2018-06-30T20:17:47.960Z,7.8
2018-06-30T20:18:50.793Z,7.8
2018-06-30T20:19:53.287Z,7.8
2018-06-30T20:20:56.267Z,7.7
2018-06-30T20:21:59.028Z,7.7
2018-06-30T20:23:01.782Z,7.6
2018-06-30T20:24:04.544Z,7.5
2018-06-30T20:25:07.286Z,7.4
2018-06-30T20:26:10.035Z,7.3
2018-06-30T20:27:12.773Z,7.2
2018-06-30T20:28:15.529Z,7.2
2018-06-30T20:29:18.041Z,7.2
2018-06-30T20:30:20.786Z,7.2
2018-06-30T20:31:23.548Z,7.2
2018-06-30T20:32:26.311Z,7.2
2018-06-30T20:33:28.786Z,7.2
2018-06-30T20:34:31.537Z,7.2
2018-06-30T20:35:34.304Z,7.2
2018-06-30T20:36:37.042Z,7.2
2018-06-30T20:37:39.806Z,7.2
2018-06-30T20:38:42.301Z,7.2
2018-06-30T20:39:46.237Z,7.2
2018-06-30T20:40:49.059Z,7.2
2018-06-30T20:41:51.834Z,7.2
2018-06-30T20:42:54.624Z,7.2
2018-06-30T20:43:57.418Z,7.2
2018-06-30T20:45:00.748Z,7.2
2018-06-30T20:46:03.160Z,7.2
2018-06-30T20:47:05.914Z,7.2
2018-06-30T20:48:08.666Z,7.2
2018-06-30T20:49:11.424Z,7.2
2018-06-30T20:50:14.189Z,7.2
2018-06-30T20:51:16.936Z,7.3
2018-06-30T20:52:19.694Z,7.3
2018-06-30T20:53:22.459Z,7.3
2018-06-30T20:54:25.226Z,7.4
2018-06-30T20:55:27.988Z,7.4
2018-06-30T20:56:31.413Z,7.4
2018-06-30T20:57:33.996Z,7.5
2018-06-30T20:58:36.761Z,7.5
2018-06-30T20:59:39.508Z,7.6
2018-06-30T21:00:42.266Z,7.6
2018-06-30T21:01:45.666Z,7.6
2018-06-30T21:02:48.411Z,7.6
2018-06-30T21:03:51.163Z,7.7
2018-06-30T21:04:53.623Z,7.7
2018-06-30T21:05:56.089Z,7.8
2018-06-30T21:06:58.840Z,7.8
2018-06-30T21:08:01.591Z,7.8
2018-06-30T21:09:04.349Z,7.9
2018-06-30T21:10:07.097Z,7.9
2018-06-30T21:11:09.563Z,7.9
2018-06-30T21:12:12.318Z,7.9
2018-06-30T21:13:15.072Z,7.9
2018-06-30T21:14:17.823Z,7.9
2018-06-30T21:15:20.305Z,7.9
2018-06-30T21:16:23.056Z,7.9
2018-06-30T21:17:25.828Z,7.9
2018-06-30T21:18:28.583Z,7.9
2018-06-30T21:19:31.338Z,7.9
2018-06-30T21:20:33.548Z,7.9
2018-06-30T21:21:36.278Z,7.9
2018-06-30T21:22:38.786Z,7.9
2018-06-30T21:23:41.546Z,7.9
2018-06-30T21:24:44.269Z,7.9
2018-06-30T21:25:46.777Z,7.9
2018-06-30T21:26:49.520Z,7.8
2018-06-30T21:27:52.275Z,7.8
2018-06-30T21:28:55.019Z,7.8
2018-06-30T21:29:58.347Z,7.8
2018-06-30T21:31:00.821Z,7.8
2018-06-30T21:32:03.569Z,7.7
2018-06-30T21:33:06.067Z,7.7
2018-06-30T21:34:08.817Z,7.7
2018-06-30T21:35:11.574Z,7.6
2018-06-30T21:36:14.333Z,7.6
2018-06-30T21:37:17.099Z,7.5
2018-06-30T21:38:19.847Z,7.5
2018-06-30T21:39:22.317Z,7.4
2018-06-30T21:40:25.061Z,7.4
2018-06-30T21:41:27.813Z,7.3
2018-06-30T21:42:30.544Z,7.3
2018-06-30T21:43:33.299Z,7.2
2018-06-30T21:44:36.056Z,7.2
2018-06-30T21:45:38.815Z,7.2
2018-06-30T21:46:41.547Z,7.2
2018-06-30T21:47:44.310Z,7.2
2018-06-30T21:48:46.797Z,7.2
2018-06-30T21:49:49.547Z,7.2
2018-06-30T21:50:52.709Z,7.2
2018-06-30T21:51:55.474Z,7.2
2018-06-30T21:52:58.228Z,7.2
2018-06-30T21:54:00.697Z,7.2
2018-06-30T21:55:03.208Z,7.2
2018-06-30T21:56:05.957Z,7.2
2018-06-30T21:57:08.752Z,7.2
2018-06-30T21:58:11.508Z,7.2
2018-06-30T21:59:14.247Z,7.2
2018-06-30T22:00:16.997Z,7.2
2018-06-30T22:01:19.730Z,7.2
2018-06-30T22:02:22.490Z,7.3
2018-06-30T22:03:25.247Z,7.3
2018-06-30T22:04:27.741Z,7.3
2018-06-30T22:05:30.479Z,7.3
2018-06-30T22:06:33.228Z,7.3
2018-06-30T22:07:35.989Z,7.4
2018-06-30T22:08:38.729Z,7.4
2018-06-30T22:09:41.469Z,7.4
2018-06-30T22:10:44.768Z,7.5
2018-06-30T22:11:47.541Z,7.5
2018-06-30T22:12:50.020Z,7.6
2018-06-30T22:13:52.775Z,7.7
2018-06-30T22:14:55.228Z,7.7
2018-06-30T22:15:57.990Z,7.8
2018-06-30T22:17:00.215Z,7.8
2018-06-30T22:18:02.951Z,7.9
2018-06-30T22:19:05.720Z,7.9
2018-06-30T22:20:08.473Z,7.9
2018-06-30T22:21:10.943Z,7.9
2018-06-30T22:22:13.693Z,7.9
2018-06-30T22:23:16.428Z,7.9
2018-06-30T22:24:18.918Z,7.9
2018-06-30T22:25:21.662Z,7.9
2018-06-30T22:26:24.654Z,7.9
2018-06-30T22:27:27.475Z,7.9
2018-06-30T22:28:30.251Z,7.9
2018-06-30T22:29:32.708Z,7.9
2018-06-30T22:30:35.450Z,7.9
2018-06-30T22:31:37.940Z,7.9
2018-06-30T22:32:40.711Z,7.9
2018-06-30T22:33:43.459Z,7.9
2018-06-30T22:34:46.208Z,7.9
2018-06-30T22:35:48.950Z,7.9
2018-06-30T22:36:51.689Z,7.9
2018-06-30T22:37:54.438Z,7.9
2018-06-30T22:38:57.170Z,7.9
2018-06-30T22:39:59.646Z,7.9
2018-06-30T22:41:02.144Z,7.9
2018-06-30T22:42:04.906Z,7.9
2018-06-30T22:43:07.658Z,7.9
2018-06-30T22:44:10.386Z,7.9
2018-06-30T22:45:12.598Z,7.9
2018-06-30T22:46:15.350Z,7.9
2018-06-30T22:47:18.321Z,7.9
2018-06-30T22:48:21.080Z,7.9
2018-06-30T22:49:23.828Z,7.9
2018-06-30T22:50:26.574Z,7.9
2018-06-30T22:51:29.318Z,7.9
2018-06-30T22:52:32.086Z,7.9
2018-06-30T22:53:34.837Z,7.9
2018-06-30T22:54:37.571Z,7.9
2018-06-30T22:55:40.065Z,7.9
2018-06-30T22:56:42.811Z,7.9
2018-06-30T22:57:45.553Z,7.9
2018-06-30T22:58:48.300Z,7.9
2018-06-30T22:59:50.803Z,7.9
2018-06-30T23:00:53.547Z,7.9
2018-06-30T23:01:56.297Z,7.9
2018-06-30T23:02:59.026Z,7.9
2018-06-30T23:04:01.783Z,7.9
2018-06-30T23:05:04.531Z,7.9
2018-06-30T23:06:07.269Z,7.9
2018-06-30T23:07:10.020Z,7.9
2018-06-30T23:08:12.479Z,7.9
2018-06-30T23:09:15.234Z,7.9
2018-06-30T23:10:17.981Z,7.9
2018-06-30T23:11:20.752Z,7.9
2018-06-30T23:12:23.236Z,7.9
2018-06-30T23:13:25.713Z,7.8
2018-06-30T23:14:28.177Z,7.8
2018-06-30T23:15:30.654Z,7.8
2018-06-30T23:16:33.129Z,7.9
2018-06-30T23:17:35.867Z,7.9
2018-06-30T23:18:38.622Z,7.9
2018-06-30T23:19:41.371Z,7.9
2018-06-30T23:20:44.138Z,7.9
2018-06-30T23:21:46.615Z,7.9
2018-06-30T23:22:49.346Z,7.9
2018-06-30T23:23:52.084Z,7.9
2018-06-30T23:24:54.991Z,7.9
2018-06-30T23:25:57.744Z,7.9
2018-06-30T23:27:00.499Z,7.9
2018-06-30T23:28:03.268Z,7.9
2018-06-30T23:29:05.748Z,7.9
2018-06-30T23:30:07.936Z,7.9
2018-06-30T23:31:10.699Z,7.9
2018-06-30T23:32:13.449Z,7.9
2018-06-30T23:33:15.915Z,7.9
2018-06-30T23:34:18.661Z,7.9
2018-06-30T23:35:21.158Z,7.9
2018-06-30T23:36:23.893Z,7.9
2018-06-30T23:37:26.633Z,7.9
2018-06-30T23:38:29.383Z,7.9
2018-06-30T23:39:32.133Z,7.9
2018-06-30T23:40:34.633Z,7.9
2018-06-30T23:41:37.379Z,7.9
2018-06-30T23:42:40.113Z,7.9
2018-06-30T23:43:42.646Z,7.9
2018-06-30T23:44:45.381Z,7.9
2018-06-30T23:45:48.133Z,7.9
2018-06-30T23:46:50.881Z,7.9
2018-06-30T23:47:53.631Z,7.9
2018-06-30T23:48:56.371Z,7.9
2018-06-30T23:49:58.831Z,7.9
2018-06-30T23:51:01.297Z,7.9
2018-06-30T23:52:04.084Z,7.8
2018-06-30T23:53:06.810Z,7.8
2018-06-30T23:54:09.552Z,7.8
2018-06-30T23:55:12.306Z,7.8
2018-06-30T23:56:15.060Z,7.8
2018-06-30T23:57:17.846Z,7.8
2018-06-30T23:58:20.590Z,7.8
2018-06-30T23:59:23.352Z,7.8
